createdAt,value
2022-10-18T00:00:11.811Z,5.4
2022-10-18T00:00:31.873Z,5.4
2022-10-18T00:00:51.913Z,5.2
2022-10-18T00:01:11.943Z,5.2
2022-10-18T00:01:31.978Z,5.2
2022-10-18T00:01:52.085Z,5.2
2022-10-18T00:02:12.247Z,5.2
2022-10-18T00:02:32.301Z,5.2
2022-10-18T00:02:52.237Z,5.2
2022-10-18T00:03:12.286Z,5.2
2022-10-18T00:03:32.442Z,5.2
2022-10-18T00:03:52.405Z,5.2
2022-10-18T00:04:12.452Z,5.2
2022-10-18T00:04:32.514Z,5.2
2022-10-18T00:04:52.574Z,5.2
2022-10-18T00:05:12.643Z,5.2
2022-10-18T00:05:32.688Z,5.2
2022-10-18T00:05:52.755Z,5.2
2022-10-18T00:06:12.779Z,5.2
2022-10-18T00:06:32.869Z,5.2
2022-10-18T00:06:52.941Z,5.2
2022-10-18T00:07:12.991Z,5.2
2022-10-18T00:07:33.370Z,5.2
2022-10-18T00:07:53.103Z,5.2
2022-10-18T00:08:13.167Z,5.2
2022-10-18T00:08:33.230Z,5.2
2022-10-18T00:08:53.295Z,5.2
2022-10-18T00:09:13.349Z,5.2
2022-10-18T00:09:33.407Z,5.2
2022-10-18T00:09:53.460Z,5.2
2022-10-18T00:10:13.555Z,5.2
2022-10-18T00:10:33.588Z,5.2
2022-10-18T00:10:53.638Z,5.2
2022-10-18T00:11:13.698Z,5.2
2022-10-18T00:11:33.764Z,5.2
2022-10-18T00:11:53.819Z,5.2
2022-10-18T00:12:13.890Z,5.2
2022-10-18T00:12:34.004Z,5.2
2022-10-18T00:12:53.983Z,5.2
2022-10-18T00:13:14.045Z,5.2
2022-10-18T00:13:34.111Z,5.2
2022-10-18T00:13:54.217Z,5.2
2022-10-18T00:14:14.300Z,5.2
2022-10-18T00:14:34.375Z,5.2
2022-10-18T00:14:54.453Z,5.2
2022-10-18T00:15:14.520Z,5.2
2022-10-18T00:15:34.589Z,5.2
2022-10-18T00:15:54.695Z,5.2
2022-10-18T00:16:14.753Z,5.2
2022-10-18T00:16:34.835Z,5.2
2022-10-18T00:16:54.857Z,5.2
2022-10-18T00:17:14.916Z,5.2
2022-10-18T00:17:34.990Z,5.2
2022-10-18T00:17:55.069Z,5.2
2022-10-18T00:18:15.144Z,5.2
2022-10-18T00:18:35.214Z,5.2
2022-10-18T00:18:55.294Z,5.2
2022-10-18T00:19:15.379Z,5.2
2022-10-18T00:19:35.481Z,5.2
2022-10-18T00:19:55.529Z,5.2
2022-10-18T00:20:15.597Z,5.2
2022-10-18T00:20:35.690Z,5.2
2022-10-18T00:20:55.786Z,5
2022-10-18T00:21:15.843Z,5
2022-10-18T00:21:35.969Z,5
2022-10-18T00:21:55.975Z,5
2022-10-18T00:22:16.069Z,5
2022-10-18T00:22:36.149Z,5
2022-10-18T00:22:56.239Z,5
2022-10-18T00:23:16.305Z,5
2022-10-18T00:23:36.379Z,5
2022-10-18T00:23:56.461Z,5
2022-10-18T00:24:16.656Z,5
2022-10-18T00:24:36.599Z,5
2022-10-18T00:24:56.669Z,5
2022-10-18T00:25:16.731Z,5
2022-10-18T00:25:36.788Z,5
2022-10-18T00:25:56.856Z,5
2022-10-18T00:26:16.909Z,5
2022-10-18T00:26:36.972Z,5
2022-10-18T00:26:57.033Z,5
2022-10-18T00:27:17.079Z,5
2022-10-18T00:27:37.151Z,5
2022-10-18T00:27:57.209Z,5
2022-10-18T00:28:17.269Z,5
2022-10-18T00:28:37.374Z,5
2022-10-18T00:28:57.459Z,5
2022-10-18T00:29:17.404Z,5
2022-10-18T00:29:37.461Z,5
2022-10-18T00:29:57.524Z,5
2022-10-18T00:30:17.574Z,5
2022-10-18T00:30:37.733Z,5
2022-10-18T00:30:57.692Z,4.5
2022-10-18T00:31:17.758Z,4.5
2022-10-18T00:31:37.819Z,4.5
2022-10-18T00:31:57.869Z,4.5
2022-10-18T00:32:17.934Z,4.5
2022-10-18T00:32:37.993Z,4.5
2022-10-18T00:32:58.053Z,4.5
2022-10-18T00:33:18.116Z,4.5
2022-10-18T00:33:38.166Z,4.5
2022-10-18T00:33:58.240Z,4.5
2022-10-18T00:34:18.294Z,4.5
2022-10-18T00:34:38.351Z,4.5
2022-10-18T00:34:58.416Z,4.5
2022-10-18T00:35:18.487Z,4.5
2022-10-18T00:35:38.531Z,4.5
2022-10-18T00:35:58.580Z,4.5
2022-10-18T00:36:18.663Z,4.5
2022-10-18T00:36:38.683Z,4.5
2022-10-18T00:36:58.771Z,4.5
2022-10-18T00:37:18.832Z,4.5
2022-10-18T00:37:38.891Z,4.5
2022-10-18T00:37:58.932Z,4.5
2022-10-18T00:38:18.994Z,4.5
2022-10-18T00:38:39.065Z,4.5
2022-10-18T00:38:59.132Z,4.5
2022-10-18T00:39:19.221Z,4.5
2022-10-18T00:39:39.304Z,4.5
2022-10-18T00:39:59.370Z,4.5
2022-10-18T00:40:19.438Z,4.5
2022-10-18T00:40:39.512Z,4.5
2022-10-18T00:40:59.589Z,5.7
2022-10-18T00:41:19.686Z,5.7
2022-10-18T00:41:39.746Z,5.7
2022-10-18T00:41:59.811Z,5.7
2022-10-18T00:42:19.878Z,5.7
2022-10-18T00:42:39.930Z,5.7
2022-10-18T00:42:59.999Z,5.7
2022-10-18T00:43:20.086Z,5.7
2022-10-18T00:43:40.145Z,5.7
2022-10-18T00:44:00.219Z,5.7
2022-10-18T00:44:20.276Z,5.7
2022-10-18T00:44:40.357Z,5.7
2022-10-18T00:45:00.452Z,5.7
2022-10-18T00:45:20.554Z,5.7
2022-10-18T00:45:40.646Z,5.7
2022-10-18T00:46:00.705Z,5.7
2022-10-18T00:46:20.798Z,5.7
2022-10-18T00:46:40.885Z,5.7
2022-10-18T00:47:01.006Z,5.7
2022-10-18T00:47:21.036Z,5.7
2022-10-18T00:47:41.079Z,5.7
2022-10-18T00:48:01.148Z,5.7
2022-10-18T00:48:21.326Z,5.7
2022-10-18T00:48:41.420Z,5.7
2022-10-18T00:49:01.428Z,5.7
2022-10-18T00:49:21.483Z,5.7
2022-10-18T00:49:41.551Z,5.7
2022-10-18T00:50:01.634Z,5.7
2022-10-18T00:50:21.684Z,5.7
2022-10-18T00:50:41.758Z,5.7
2022-10-18T00:51:01.842Z,3.4
2022-10-18T00:51:21.897Z,3.4
2022-10-18T00:51:41.958Z,3.4
2022-10-18T00:52:02.012Z,3.4
2022-10-18T00:52:22.112Z,3.4
2022-10-18T00:52:42.207Z,3.4
2022-10-18T00:53:02.288Z,3.4
2022-10-18T00:53:22.357Z,3.4
2022-10-18T00:53:42.450Z,3.4
2022-10-18T00:54:02.512Z,3.4
2022-10-18T00:54:22.579Z,3.4
2022-10-18T00:54:42.658Z,3.4
2022-10-18T00:55:02.755Z,3.4
2022-10-18T00:55:22.804Z,3.4
2022-10-18T00:55:42.917Z,3.4
2022-10-18T00:56:02.947Z,3.4
2022-10-18T00:56:23.014Z,3.4
2022-10-18T00:56:43.081Z,3.4
2022-10-18T00:57:03.121Z,3.4
2022-10-18T00:57:23.186Z,3.4
2022-10-18T00:57:43.373Z,3.4
2022-10-18T00:58:03.322Z,3.4
2022-10-18T00:58:23.403Z,3.4
2022-10-18T00:58:43.486Z,3.4
2022-10-18T00:59:03.538Z,3.4
2022-10-18T00:59:23.626Z,3.4
2022-10-18T00:59:43.706Z,3.4
2022-10-18T01:00:03.801Z,3.4
2022-10-18T01:00:23.900Z,3.4
2022-10-18T01:00:43.943Z,3.4
2022-10-18T01:01:03.992Z,2.3
2022-10-18T01:01:27.482Z,2.3
2022-10-18T01:01:44.217Z,2.3
2022-10-18T01:02:04.374Z,2.3
2022-10-18T01:02:24.385Z,2.3
2022-10-18T01:02:44.455Z,2.3
2022-10-18T01:03:04.533Z,2.3
2022-10-18T01:03:24.607Z,2.3
2022-10-18T01:03:44.718Z,2.3
2022-10-18T01:04:04.770Z,2.3
2022-10-18T01:04:24.836Z,2.3
2022-10-18T01:04:44.920Z,2.3
2022-10-18T01:05:05.029Z,2.3
2022-10-18T01:05:25.119Z,2.3
2022-10-18T01:05:45.188Z,2.3
2022-10-18T01:06:05.268Z,2.3
2022-10-18T01:06:25.353Z,2.3
2022-10-18T01:06:45.441Z,2.3
2022-10-18T01:07:05.516Z,2.3
2022-10-18T01:07:25.606Z,2.3
2022-10-18T01:07:45.703Z,2.3
2022-10-18T01:08:05.748Z,2.3
2022-10-18T01:08:25.806Z,2.3
2022-10-18T01:08:45.875Z,2.3
2022-10-18T01:09:06.010Z,2.3
2022-10-18T01:09:26.070Z,2.3
2022-10-18T01:09:46.120Z,2.3
2022-10-18T01:10:06.178Z,2.3
2022-10-18T01:10:26.257Z,2.3
2022-10-18T01:10:46.379Z,2.3
2022-10-18T01:11:06.434Z,2
2022-10-18T01:11:26.496Z,2
2022-10-18T01:11:46.545Z,2
2022-10-18T01:12:06.603Z,2
2022-10-18T01:12:26.635Z,2
2022-10-18T01:12:46.698Z,2
2022-10-18T01:13:06.783Z,2
2022-10-18T01:13:26.840Z,2
2022-10-18T01:13:46.899Z,2
2022-10-18T01:14:06.952Z,2
2022-10-18T01:14:27.017Z,2
2022-10-18T01:14:47.081Z,2
2022-10-18T01:15:07.132Z,2
2022-10-18T01:15:27.202Z,2
2022-10-18T01:15:47.315Z,2
2022-10-18T01:16:07.321Z,2
2022-10-18T01:16:27.383Z,2
2022-10-18T01:16:47.438Z,2
2022-10-18T01:17:07.491Z,2
2022-10-18T01:17:27.564Z,2
2022-10-18T01:17:47.623Z,2
2022-10-18T01:18:07.673Z,2
2022-10-18T01:18:27.737Z,2
2022-10-18T01:18:47.788Z,2
2022-10-18T01:19:07.837Z,2
2022-10-18T01:19:27.919Z,2
2022-10-18T01:19:47.983Z,2
2022-10-18T01:20:08.020Z,2
2022-10-18T01:20:28.079Z,2
2022-10-18T01:20:48.141Z,2
2022-10-18T01:21:08.199Z,2
2022-10-18T01:21:28.260Z,3.5
2022-10-18T01:21:48.320Z,3.5
2022-10-18T01:22:08.388Z,3.5
2022-10-18T01:22:28.444Z,3.5
2022-10-18T01:22:48.492Z,3.5
2022-10-18T01:23:08.568Z,3.5
2022-10-18T01:23:28.618Z,3.5
2022-10-18T01:23:48.675Z,3.5
2022-10-18T01:24:08.737Z,3.5
2022-10-18T01:24:28.789Z,3.5
2022-10-18T01:24:48.942Z,3.5
2022-10-18T01:25:08.924Z,3.5
2022-10-18T01:25:28.977Z,3.5
2022-10-18T01:25:49.061Z,3.5
2022-10-18T01:26:09.102Z,3.5
2022-10-18T01:26:29.165Z,3.5
2022-10-18T01:26:49.220Z,3.5
2022-10-18T01:27:09.271Z,3.5
2022-10-18T01:27:29.576Z,3.5
2022-10-18T01:27:49.376Z,3.5
2022-10-18T01:28:09.444Z,3.5
2022-10-18T01:28:29.545Z,3.5
2022-10-18T01:28:49.604Z,3.5
2022-10-18T01:29:09.621Z,3.5
2022-10-18T01:29:29.663Z,3.5
2022-10-18T01:29:49.742Z,3.5
2022-10-18T01:30:09.794Z,3.5
2022-10-18T01:30:29.846Z,3.5
2022-10-18T01:30:49.908Z,3.5
2022-10-18T01:31:09.973Z,3.5
2022-10-18T01:31:30.029Z,4.3
2022-10-18T01:31:50.062Z,4.3
2022-10-18T01:32:10.117Z,4.3
2022-10-18T01:32:30.174Z,4.3
2022-10-18T01:32:50.242Z,4.3
2022-10-18T01:33:10.321Z,4.3
2022-10-18T01:33:30.390Z,4.3
2022-10-18T01:33:50.508Z,4.3
2022-10-18T01:34:10.541Z,4.3
2022-10-18T01:34:30.640Z,4.3
2022-10-18T01:34:50.705Z,4.3
2022-10-18T01:35:10.743Z,4.3
2022-10-18T01:35:30.790Z,4.3
2022-10-18T01:35:50.870Z,4.3
2022-10-18T01:36:10.945Z,4.3
2022-10-18T01:36:31.040Z,4.3
2022-10-18T01:36:51.122Z,4.3
2022-10-18T01:37:11.199Z,4.3
2022-10-18T01:37:31.540Z,4.3
2022-10-18T01:37:51.348Z,4.3
2022-10-18T01:38:11.418Z,4.3
2022-10-18T01:38:31.510Z,4.3
2022-10-18T01:38:51.564Z,4.3
2022-10-18T01:39:11.636Z,4.3
2022-10-18T01:39:31.725Z,4.3
2022-10-18T01:39:51.784Z,4.3
2022-10-18T01:40:11.859Z,4.3
2022-10-18T01:40:31.950Z,4.3
2022-10-18T01:40:52.016Z,4.3
2022-10-18T01:41:15.601Z,4.3
2022-10-18T01:41:32.151Z,2.3
2022-10-18T01:41:52.226Z,2.3
2022-10-18T01:42:12.288Z,2.3
2022-10-18T01:42:32.336Z,2.3
2022-10-18T01:42:52.428Z,2.3
2022-10-18T01:43:12.505Z,2.3
2022-10-18T01:43:32.580Z,2.3
2022-10-18T01:43:52.662Z,2.3
2022-10-18T01:44:12.710Z,2.3
2022-10-18T01:44:32.793Z,2.3
2022-10-18T01:44:52.888Z,2.3
2022-10-18T01:45:12.949Z,2.3
2022-10-18T01:45:33.051Z,2.3
2022-10-18T01:45:53.131Z,2.3
2022-10-18T01:46:13.199Z,2.3
2022-10-18T01:46:33.293Z,2.3
2022-10-18T01:46:53.377Z,2.3
2022-10-18T01:47:13.468Z,2.3
2022-10-18T01:47:33.940Z,2.3
2022-10-18T01:47:53.598Z,2.3
2022-10-18T01:48:13.675Z,2.3
2022-10-18T01:48:33.733Z,2.3
2022-10-18T01:48:53.810Z,2.3
2022-10-18T01:49:13.891Z,2.3
2022-10-18T01:49:33.941Z,2.3
2022-10-18T01:49:54.030Z,2.3
2022-10-18T01:50:14.118Z,2.3
2022-10-18T01:50:34.189Z,2.3
2022-10-18T01:50:54.263Z,2.3
2022-10-18T01:51:14.363Z,2.3
2022-10-18T01:51:34.410Z,6
2022-10-18T01:51:54.529Z,6
2022-10-18T01:52:14.589Z,6
2022-10-18T01:52:34.685Z,6
2022-10-18T01:52:54.746Z,6
2022-10-18T01:53:14.822Z,6
2022-10-18T01:53:34.910Z,6
2022-10-18T01:53:54.991Z,6
2022-10-18T01:54:15.144Z,6
2022-10-18T01:54:35.153Z,6
2022-10-18T01:54:55.235Z,6
2022-10-18T01:55:15.316Z,6
2022-10-18T01:55:35.386Z,6
2022-10-18T01:55:55.462Z,6
2022-10-18T01:56:15.582Z,6
2022-10-18T01:56:35.639Z,6
2022-10-18T01:56:55.713Z,6
2022-10-18T01:57:15.766Z,6
2022-10-18T01:57:35.836Z,6
2022-10-18T01:57:55.872Z,6
2022-10-18T01:58:15.898Z,6
2022-10-18T01:58:35.950Z,6
2022-10-18T01:58:56.015Z,6
2022-10-18T01:59:16.062Z,6
2022-10-18T01:59:36.120Z,6
2022-10-18T01:59:56.172Z,6
2022-10-18T02:00:16.231Z,6
2022-10-18T02:00:36.306Z,6
2022-10-18T02:00:56.353Z,6
2022-10-18T02:01:16.406Z,6
2022-10-18T02:01:36.468Z,2.65
2022-10-18T02:01:56.540Z,2.65
2022-10-18T02:02:16.591Z,2.65
2022-10-18T02:02:36.644Z,2.65
2022-10-18T02:02:56.703Z,2.65
2022-10-18T02:03:16.763Z,2.65
2022-10-18T02:03:36.823Z,2.65
2022-10-18T02:03:56.902Z,2.65
2022-10-18T02:04:16.944Z,2.65
2022-10-18T02:04:36.974Z,2.65
2022-10-18T02:04:57.032Z,2.65
2022-10-18T02:05:17.112Z,2.65
2022-10-18T02:05:37.181Z,2.65
2022-10-18T02:05:57.237Z,2.65
2022-10-18T02:06:17.300Z,2.65
2022-10-18T02:06:37.362Z,2.65
2022-10-18T02:06:57.416Z,2.65
2022-10-18T02:07:17.475Z,2.65
2022-10-18T02:07:37.538Z,2.65
2022-10-18T02:08:12.093Z,2.65
2022-10-18T02:08:24.350Z,2.65
2022-10-18T02:08:37.708Z,2.65
2022-10-18T02:08:57.754Z,2.65
2022-10-18T02:09:17.824Z,2.65
2022-10-18T02:09:37.876Z,2.65
2022-10-18T02:09:57.939Z,2.65
2022-10-18T02:10:18.040Z,2.65
2022-10-18T02:10:38.049Z,2.65
2022-10-18T02:10:58.114Z,2.65
2022-10-18T02:11:18.168Z,2.65
2022-10-18T02:11:38.236Z,2.25
2022-10-18T02:11:58.259Z,2.25
2022-10-18T02:12:18.286Z,2.25
2022-10-18T02:12:38.391Z,2.25
2022-10-18T02:12:58.466Z,2.25
2022-10-18T02:13:18.523Z,2.25
2022-10-18T02:13:38.587Z,2.25
2022-10-18T02:13:58.636Z,2.25
2022-10-18T02:14:18.704Z,2.25
2022-10-18T02:14:38.753Z,2.25
2022-10-18T02:14:58.810Z,2.25
2022-10-18T02:15:18.873Z,2.25
2022-10-18T02:15:38.920Z,2.25
2022-10-18T02:15:58.989Z,2.25
2022-10-18T02:16:19.047Z,2.25
2022-10-18T02:16:39.101Z,2.25
2022-10-18T02:16:59.157Z,2.25
2022-10-18T02:17:19.220Z,2.25
2022-10-18T02:17:39.268Z,2.25
2022-10-18T02:17:59.348Z,2.25
2022-10-18T02:18:19.393Z,2.25
2022-10-18T02:18:39.455Z,2.25
2022-10-18T02:18:59.528Z,2.25
2022-10-18T02:19:19.583Z,2.25
2022-10-18T02:19:39.587Z,2.25
2022-10-18T02:19:59.663Z,2.25
2022-10-18T02:20:19.690Z,2.25
2022-10-18T02:20:39.789Z,2.25
2022-10-18T02:20:59.853Z,2.25
2022-10-18T02:21:19.912Z,2.25
2022-10-18T02:21:39.966Z,2.25
2022-10-18T02:22:00.037Z,3.15
2022-10-18T02:22:20.079Z,3.15
2022-10-18T02:22:40.105Z,3.15
2022-10-18T02:23:00.162Z,3.15
2022-10-18T02:23:20.233Z,3.15
2022-10-18T02:23:40.334Z,3.15
2022-10-18T02:24:00.389Z,3.15
2022-10-18T02:24:20.448Z,3.15
2022-10-18T02:24:40.508Z,3.15
2022-10-18T02:25:00.555Z,3.15
2022-10-18T02:25:20.626Z,3.15
2022-10-18T02:25:40.684Z,3.15
2022-10-18T02:26:00.742Z,3.15
2022-10-18T02:26:20.807Z,3.15
2022-10-18T02:26:40.865Z,3.15
2022-10-18T02:27:00.919Z,3.15
2022-10-18T02:27:20.992Z,3.15
2022-10-18T02:27:41.099Z,3.15
2022-10-18T02:28:01.196Z,3.15
2022-10-18T02:28:21.344Z,3.15
2022-10-18T02:28:41.314Z,3.15
2022-10-18T02:29:01.394Z,3.15
2022-10-18T02:29:21.499Z,3.15
2022-10-18T02:29:41.557Z,3.15
2022-10-18T02:30:01.674Z,3.15
2022-10-18T02:30:21.670Z,3.15
2022-10-18T02:30:41.751Z,3.15
2022-10-18T02:31:01.863Z,3.15
2022-10-18T02:31:21.895Z,3.15
2022-10-18T02:31:41.956Z,4.25
2022-10-18T02:32:02.039Z,4.25
2022-10-18T02:32:22.116Z,4.25
2022-10-18T02:32:42.180Z,4.25
2022-10-18T02:33:02.274Z,4.25
2022-10-18T02:33:22.342Z,4.25
2022-10-18T02:33:42.410Z,4.25
2022-10-18T02:34:02.465Z,4.25
2022-10-18T02:34:22.504Z,4.25
2022-10-18T02:34:42.568Z,4.25
2022-10-18T02:35:02.625Z,4.25
2022-10-18T02:35:22.684Z,4.25
2022-10-18T02:35:42.724Z,4.25
2022-10-18T02:36:02.801Z,4.25
2022-10-18T02:36:22.865Z,4.25
2022-10-18T02:36:42.917Z,4.25
2022-10-18T02:37:02.980Z,4.25
2022-10-18T02:37:23.140Z,4.25
2022-10-18T02:37:43.156Z,4.25
2022-10-18T02:38:03.227Z,4.25
2022-10-18T02:38:23.300Z,4.25
2022-10-18T02:38:43.371Z,4.25
2022-10-18T02:39:03.426Z,4.25
2022-10-18T02:39:23.484Z,4.25
2022-10-18T02:39:43.546Z,4.25
2022-10-18T02:40:03.609Z,4.25
2022-10-18T02:40:23.680Z,4.25
2022-10-18T02:40:43.766Z,4.25
2022-10-18T02:41:03.859Z,4.25
2022-10-18T02:41:23.947Z,4.25
2022-10-18T02:41:44.034Z,2.05
2022-10-18T02:42:04.143Z,2.05
2022-10-18T02:42:24.193Z,2.05
2022-10-18T02:42:44.257Z,2.05
2022-10-18T02:43:04.368Z,2.05
2022-10-18T02:43:24.445Z,2.05
2022-10-18T02:43:44.517Z,2.05
2022-10-18T02:44:04.619Z,2.05
2022-10-18T02:44:24.644Z,2.05
2022-10-18T02:44:44.691Z,2.05
2022-10-18T02:45:04.769Z,2.05
2022-10-18T02:45:24.852Z,2.05
2022-10-18T02:45:44.941Z,2.05
2022-10-18T02:46:05.004Z,2.05
2022-10-18T02:46:25.070Z,2.05
2022-10-18T02:46:45.140Z,2.05
2022-10-18T02:47:05.214Z,2.05
2022-10-18T02:47:25.271Z,2.05
2022-10-18T02:47:45.361Z,2.05
2022-10-18T02:48:05.442Z,2.05
2022-10-18T02:48:25.527Z,2.05
2022-10-18T02:48:45.594Z,2.05
2022-10-18T02:49:05.693Z,2.05
2022-10-18T02:49:25.768Z,2.05
2022-10-18T02:49:45.837Z,2.05
2022-10-18T02:50:05.909Z,2.05
2022-10-18T02:50:26.002Z,2.05
2022-10-18T02:50:46.071Z,2.05
2022-10-18T02:51:06.137Z,2.05
2022-10-18T02:51:26.217Z,2.05
2022-10-18T02:51:46.296Z,5.35
2022-10-18T02:52:06.352Z,5.35
2022-10-18T02:52:26.463Z,5.35
2022-10-18T02:52:46.535Z,5.35
2022-10-18T02:53:06.589Z,5.35
2022-10-18T02:53:26.673Z,5.35
2022-10-18T02:53:46.753Z,5.35
2022-10-18T02:54:06.858Z,5.35
2022-10-18T02:54:26.908Z,5.35
2022-10-18T02:54:46.975Z,5.35
2022-10-18T02:55:07.050Z,5.35
2022-10-18T02:55:30.212Z,5.35
2022-10-18T02:55:47.203Z,5.35
2022-10-18T02:56:07.305Z,5.35
2022-10-18T02:56:27.357Z,5.35
2022-10-18T02:56:47.425Z,5.35
2022-10-18T02:57:07.505Z,5.35
2022-10-18T02:57:27.573Z,5.35
2022-10-18T02:57:47.611Z,5.35
2022-10-18T02:58:07.672Z,5.35
2022-10-18T02:58:27.765Z,5.35
2022-10-18T02:58:47.849Z,5.35
2022-10-18T02:59:07.922Z,5.35
2022-10-18T02:59:27.991Z,5.35
2022-10-18T02:59:48.063Z,5.35
2022-10-18T03:00:08.157Z,5.35
2022-10-18T03:00:28.217Z,5.35
2022-10-18T03:00:48.414Z,5.35
2022-10-18T03:01:08.444Z,5.35
2022-10-18T03:01:28.543Z,5.35
2022-10-18T03:01:48.604Z,5.35
2022-10-18T03:02:08.619Z,3.1
2022-10-18T03:02:28.706Z,3.1
2022-10-18T03:02:48.753Z,3.1
2022-10-18T03:03:08.837Z,3.1
2022-10-18T03:03:28.887Z,3.1
2022-10-18T03:03:48.944Z,3.1
2022-10-18T03:04:09.038Z,3.1
2022-10-18T03:04:49.171Z,3.1
2022-10-18T03:05:09.222Z,3.1
2022-10-18T03:05:29.279Z,3.1
2022-10-18T03:05:49.343Z,3.1
2022-10-18T03:06:09.404Z,3.1
2022-10-18T03:06:29.457Z,3.1
2022-10-18T03:06:49.525Z,3.1
2022-10-18T03:07:09.583Z,3.1
2022-10-18T03:07:29.836Z,3.1
2022-10-18T03:07:49.701Z,3.1
2022-10-18T03:08:09.751Z,3.1
2022-10-18T03:08:29.814Z,3.1
2022-10-18T03:08:49.875Z,3.1
2022-10-18T03:09:09.937Z,3.1
2022-10-18T03:09:29.981Z,3.1
2022-10-18T03:09:50.050Z,3.1
2022-10-18T03:10:10.122Z,3.1
2022-10-18T03:10:30.191Z,3.1
2022-10-18T03:10:50.252Z,3.1
2022-10-18T03:11:10.321Z,3.1
2022-10-18T03:11:30.378Z,3.1
2022-10-18T03:11:50.438Z,3.1
2022-10-18T03:12:10.503Z,4.05
2022-10-18T03:12:30.551Z,4.05
2022-10-18T03:12:50.597Z,4.05
2022-10-18T03:13:10.607Z,4.05
2022-10-18T03:13:50.722Z,4.05
2022-10-18T03:14:10.772Z,4.05
2022-10-18T03:14:30.840Z,4.05
2022-10-18T03:14:50.894Z,4.05
2022-10-18T03:15:10.954Z,4.05
2022-10-18T03:15:31.017Z,4.05
2022-10-18T03:15:51.063Z,4.05
2022-10-18T03:16:11.115Z,4.05
2022-10-18T03:16:31.196Z,4.05
2022-10-18T03:16:51.247Z,4.05
2022-10-18T03:17:11.248Z,4.05
2022-10-18T03:17:31.665Z,4.05
2022-10-18T03:17:51.371Z,4.05
2022-10-18T03:18:11.426Z,4.05
2022-10-18T03:18:31.494Z,4.05
2022-10-18T03:18:51.544Z,4.05
2022-10-18T03:19:11.611Z,4.05
2022-10-18T03:19:31.669Z,4.05
2022-10-18T03:19:51.720Z,4.05
2022-10-18T03:20:11.777Z,4.05
2022-10-18T03:20:31.847Z,4.05
2022-10-18T03:20:51.905Z,4.05
2022-10-18T03:21:11.964Z,4.05
2022-10-18T03:21:32.030Z,4.05
2022-10-18T03:21:52.092Z,4.05
2022-10-18T03:22:12.156Z,4.45
2022-10-18T03:22:32.217Z,4.45
2022-10-18T03:22:52.266Z,4.45
2022-10-18T03:23:12.334Z,4.45
2022-10-18T03:23:32.394Z,4.45
2022-10-18T03:23:52.448Z,4.45
2022-10-18T03:24:12.502Z,4.45
2022-10-18T03:24:32.562Z,4.45
2022-10-18T03:24:52.614Z,4.45
2022-10-18T03:25:12.673Z,4.45
2022-10-18T03:25:32.708Z,4.45
2022-10-18T03:25:52.802Z,4.45
2022-10-18T03:26:12.857Z,4.45
2022-10-18T03:26:32.906Z,4.45
2022-10-18T03:26:52.981Z,4.45
2022-10-18T03:27:13.027Z,4.45
2022-10-18T03:27:33.502Z,4.45
2022-10-18T03:27:53.159Z,4.45
2022-10-18T03:28:13.202Z,4.45
2022-10-18T03:28:33.324Z,4.45
2022-10-18T03:28:53.388Z,4.45
2022-10-18T03:29:13.391Z,4.45
2022-10-18T03:29:33.444Z,4.45
2022-10-18T03:29:53.483Z,4.45
2022-10-18T03:30:13.526Z,4.45
2022-10-18T03:30:33.583Z,4.45
2022-10-18T03:30:53.646Z,4.45
2022-10-18T03:31:13.699Z,4.45
2022-10-18T03:31:33.770Z,4.45
2022-10-18T03:31:53.817Z,4.45
2022-10-18T03:32:13.827Z,4.05
2022-10-18T03:32:34.225Z,4.05
2022-10-18T03:32:53.923Z,4.05
2022-10-18T03:33:14.010Z,4.05
2022-10-18T03:33:34.089Z,4.05
2022-10-18T03:33:54.174Z,4.05
2022-10-18T03:34:14.251Z,4.05
2022-10-18T03:34:34.328Z,4.05
2022-10-18T03:34:54.411Z,4.05
2022-10-18T03:35:14.506Z,4.05
2022-10-18T03:35:34.553Z,4.05
2022-10-18T03:35:54.650Z,4.05
2022-10-18T03:36:14.671Z,4.05
2022-10-18T03:36:34.747Z,4.05
2022-10-18T03:36:54.810Z,4.05
2022-10-18T03:37:14.903Z,4.05
2022-10-18T03:37:34.981Z,4.05
2022-10-18T03:37:55.083Z,4.05
2022-10-18T03:38:15.171Z,4.05
2022-10-18T03:38:35.238Z,4.05
2022-10-18T03:38:55.334Z,4.05
2022-10-18T03:39:15.415Z,4.05
2022-10-18T03:39:35.524Z,4.05
2022-10-18T03:39:55.586Z,4.05
2022-10-18T03:40:15.652Z,4.05
2022-10-18T03:40:35.726Z,4.05
2022-10-18T03:40:55.819Z,4.05
2022-10-18T03:41:15.888Z,4.05
2022-10-18T03:41:35.957Z,4.05
2022-10-18T03:41:56.047Z,4.05
2022-10-18T03:42:16.075Z,3.2
2022-10-18T03:42:36.146Z,3.2
2022-10-18T03:42:56.227Z,3.2
2022-10-18T03:43:16.293Z,3.2
2022-10-18T03:43:36.349Z,3.2
2022-10-18T03:43:56.389Z,3.2
2022-10-18T03:44:16.427Z,3.2
2022-10-18T03:44:36.515Z,3.2
2022-10-18T03:44:56.613Z,3.2
2022-10-18T03:45:16.708Z,3.2
2022-10-18T03:45:36.771Z,3.2
2022-10-18T03:45:56.853Z,3.2
2022-10-18T03:46:16.964Z,3.2
2022-10-18T03:46:37.017Z,3.2
2022-10-18T03:46:57.087Z,3.2
2022-10-18T03:47:17.131Z,3.2
2022-10-18T03:47:37.216Z,3.2
2022-10-18T03:47:57.295Z,3.2
2022-10-18T03:48:17.357Z,3.2
2022-10-18T03:48:37.420Z,3.2
2022-10-18T03:48:57.514Z,3.2
2022-10-18T03:49:17.572Z,3.2
2022-10-18T03:49:37.645Z,3.2
2022-10-18T03:49:57.723Z,3.2
2022-10-18T03:50:17.836Z,3.2
2022-10-18T03:50:37.880Z,3.2
2022-10-18T03:50:57.981Z,3.2
2022-10-18T03:51:18.021Z,3.2
2022-10-18T03:51:38.127Z,3.2
2022-10-18T03:51:58.180Z,3.2
2022-10-18T03:52:18.245Z,2.9
2022-10-18T03:52:38.299Z,2.9
2022-10-18T03:52:58.377Z,2.9
2022-10-18T03:53:18.442Z,2.9
2022-10-18T03:53:38.475Z,2.9
2022-10-18T03:53:58.536Z,2.9
2022-10-18T03:54:18.598Z,2.9
2022-10-18T03:54:38.702Z,2.9
2022-10-18T03:54:58.774Z,2.9
2022-10-18T03:55:18.844Z,2.9
2022-10-18T03:55:38.896Z,2.9
2022-10-18T03:55:58.987Z,2.9
2022-10-18T03:56:19.080Z,2.9
2022-10-18T03:56:39.179Z,2.9
2022-10-18T03:56:59.245Z,2.9
2022-10-18T03:57:19.330Z,2.9
2022-10-18T03:57:39.425Z,2.9
2022-10-18T03:57:59.503Z,2.9
2022-10-18T03:58:19.657Z,2.9
2022-10-18T03:58:39.630Z,2.9
2022-10-18T03:58:59.686Z,2.9
2022-10-18T03:59:19.767Z,2.9
2022-10-18T03:59:39.849Z,2.9
2022-10-18T03:59:59.910Z,2.9
2022-10-18T04:00:20.019Z,2.9
2022-10-18T04:00:40.096Z,2.9
2022-10-18T04:01:00.200Z,2.9
2022-10-18T04:01:20.337Z,2.9
2022-10-18T04:01:40.426Z,2.9
2022-10-18T04:02:00.547Z,2.9
2022-10-18T04:02:20.513Z,3.1
2022-10-18T04:02:40.601Z,3.1
2022-10-18T04:03:00.653Z,3.1
2022-10-18T04:03:20.705Z,3.1
2022-10-18T04:03:40.803Z,3.1
2022-10-18T04:04:00.917Z,3.1
2022-10-18T04:04:20.960Z,3.1
2022-10-18T04:04:41.046Z,3.1
2022-10-18T04:05:01.120Z,3.1
2022-10-18T04:05:21.213Z,3.1
2022-10-18T04:05:41.265Z,3.1
2022-10-18T04:06:01.295Z,3.1
2022-10-18T04:06:21.348Z,3.1
2022-10-18T04:06:41.426Z,3.1
2022-10-18T04:07:01.522Z,3.1
2022-10-18T04:07:21.572Z,3.1
2022-10-18T04:07:41.633Z,3.1
2022-10-18T04:08:01.692Z,3.1
2022-10-18T04:08:21.744Z,3.1
2022-10-18T04:08:41.804Z,3.1
2022-10-18T04:09:04.170Z,3.1
2022-10-18T04:09:21.917Z,3.1
2022-10-18T04:09:41.986Z,3.1
2022-10-18T04:10:02.044Z,3.1
2022-10-18T04:10:22.105Z,3.1
2022-10-18T04:10:42.171Z,3.1
2022-10-18T04:11:02.279Z,3.1
2022-10-18T04:11:22.336Z,3.1
2022-10-18T04:11:42.395Z,3.1
2022-10-18T04:12:02.469Z,3.1
2022-10-18T04:12:22.498Z,3.4
2022-10-18T04:12:42.578Z,3.4
2022-10-18T04:13:02.622Z,3.4
2022-10-18T04:13:22.689Z,3.4
2022-10-18T04:13:42.773Z,3.4
2022-10-18T04:14:02.807Z,3.4
2022-10-18T04:14:22.863Z,3.4
2022-10-18T04:14:42.922Z,3.4
2022-10-18T04:15:02.985Z,3.4
2022-10-18T04:15:23.043Z,3.4
2022-10-18T04:15:43.104Z,3.4
2022-10-18T04:16:03.173Z,3.4
2022-10-18T04:16:23.293Z,3.4
2022-10-18T04:16:43.286Z,3.4
2022-10-18T04:17:03.357Z,3.4
2022-10-18T04:17:23.401Z,3.4
2022-10-18T04:17:43.459Z,3.4
2022-10-18T04:18:03.529Z,3.4
2022-10-18T04:18:23.576Z,3.4
2022-10-18T04:18:43.640Z,3.4
2022-10-18T04:19:03.705Z,3.4
2022-10-18T04:19:23.752Z,3.4
2022-10-18T04:19:43.823Z,3.4
2022-10-18T04:20:03.880Z,3.4
2022-10-18T04:20:23.932Z,3.4
2022-10-18T04:20:43.984Z,3.4
2022-10-18T04:21:04.058Z,3.4
2022-10-18T04:21:24.111Z,3.4
2022-10-18T04:21:44.169Z,3.4
2022-10-18T04:22:04.232Z,3.4
2022-10-18T04:22:24.290Z,5
2022-10-18T04:22:44.358Z,5
2022-10-18T04:23:04.406Z,5
2022-10-18T04:23:24.463Z,5
2022-10-18T04:23:44.527Z,5
2022-10-18T04:24:04.590Z,5
2022-10-18T04:24:24.647Z,5
2022-10-18T04:24:44.700Z,5
2022-10-18T04:25:04.774Z,5
2022-10-18T04:25:24.827Z,5
2022-10-18T04:25:44.886Z,5
2022-10-18T04:26:04.928Z,5
2022-10-18T04:26:24.977Z,5
2022-10-18T04:26:45.057Z,5
2022-10-18T04:27:05.129Z,5
2022-10-18T04:27:25.204Z,5
2022-10-18T04:27:45.311Z,5
2022-10-18T04:28:05.376Z,5
2022-10-18T04:28:25.484Z,5
2022-10-18T04:28:45.621Z,5
2022-10-18T04:29:05.705Z,5
2022-10-18T04:29:25.653Z,5
2022-10-18T04:29:45.726Z,5
2022-10-18T04:30:05.816Z,5
2022-10-18T04:30:25.877Z,5
2022-10-18T04:30:45.949Z,5
2022-10-18T04:31:05.991Z,5
2022-10-18T04:31:26.054Z,5
2022-10-18T04:31:46.123Z,5
2022-10-18T04:32:06.192Z,5
2022-10-18T04:32:26.281Z,5.75
2022-10-18T04:32:46.343Z,5.75
2022-10-18T04:33:06.397Z,5.75
2022-10-18T04:33:26.452Z,5.75
2022-10-18T04:33:46.556Z,5.75
2022-10-18T04:34:06.601Z,5.75
2022-10-18T04:34:26.687Z,5.75
2022-10-18T04:34:46.770Z,5.75
2022-10-18T04:35:06.834Z,5.75
2022-10-18T04:35:26.887Z,5.75
2022-10-18T04:35:46.974Z,5.75
2022-10-18T04:36:07.043Z,5.75
2022-10-18T04:36:27.127Z,5.75